createdAt,value
2018-08-31T00:00:37.594Z,17.2
2018-08-31T00:01:17.932Z,17.12
2018-08-31T00:01:58.321Z,17.14
2018-08-31T00:02:38.674Z,17.1
2018-08-31T00:03:19.063Z,17.17
2018-08-31T00:03:59.467Z,17.12
2018-08-31T00:04:39.838Z,17.09
2018-08-31T00:05:20.309Z,17.14
2018-08-31T00:06:00.684Z,17.17
2018-08-31T00:06:41.122Z,17.09
2018-08-31T00:07:21.501Z,17.09
2018-08-31T00:08:01.897Z,17.07
2018-08-31T00:08:42.295Z,17.07
2018-08-31T00:09:22.734Z,17.12
2018-08-31T00:10:03.078Z,16.95
2018-08-31T00:10:43.509Z,16.96
2018-08-31T00:11:23.897Z,16.99
2018-08-31T00:12:04.283Z,16.99
2018-08-31T00:12:44.650Z,16.92
2018-08-31T00:13:25.072Z,16.92
2018-08-31T00:14:05.472Z,16.96
2018-08-31T00:14:45.854Z,16.92
2018-08-31T00:15:26.226Z,16.95
2018-08-31T00:16:06.660Z,16.92
2018-08-31T00:16:47.053Z,16.9
2018-08-31T00:17:27.463Z,16.95
2018-08-31T00:18:07.867Z,16.95
2018-08-31T00:18:48.256Z,16.92
2018-08-31T00:19:28.715Z,16.96
2018-08-31T00:20:09.081Z,16.99
2018-08-31T00:20:49.509Z,16.96
2018-08-31T00:21:29.906Z,16.92
2018-08-31T00:22:10.350Z,16.95
2018-08-31T00:22:50.760Z,16.88
2018-08-31T00:23:31.053Z,16.95
2018-08-31T00:24:11.426Z,16.96
2018-08-31T00:24:51.802Z,16.96
2018-08-31T00:25:32.198Z,16.92
2018-08-31T00:26:12.592Z,16.96
2018-08-31T00:26:52.949Z,17.06
2018-08-31T00:27:33.334Z,17.06
2018-08-31T00:28:13.787Z,17.1
2018-08-31T00:28:54.178Z,17.21
2018-08-31T00:29:34.623Z,17.12
2018-08-31T00:30:14.977Z,17.24
2018-08-31T00:30:55.395Z,17.18
2018-08-31T00:31:35.808Z,17.15
2018-08-31T00:32:16.239Z,17.12
2018-08-31T00:32:56.605Z,17.27
2018-08-31T00:33:37.065Z,17.15
2018-08-31T00:34:17.414Z,17.2
2018-08-31T00:34:57.823Z,17.12
2018-08-31T00:35:38.245Z,17.18
2018-08-31T00:36:18.593Z,17.17
2018-08-31T00:36:59.052Z,17.2
2018-08-31T00:37:39.390Z,17.15
2018-08-31T00:38:19.846Z,17.2
2018-08-31T00:39:00.260Z,17.12
2018-08-31T00:39:40.570Z,17.1
2018-08-31T00:40:20.964Z,17.15
2018-08-31T00:41:01.409Z,17.2
2018-08-31T00:41:41.806Z,17.22
2018-08-31T00:42:22.216Z,17.18
2018-08-31T00:43:02.600Z,17.17
2018-08-31T00:43:43.075Z,17.24
2018-08-31T00:44:23.400Z,17.33
2018-08-31T00:45:03.820Z,17.28
2018-08-31T00:45:44.236Z,17.2
2018-08-31T00:46:24.647Z,17.24
2018-08-31T00:47:05.043Z,17.14
2018-08-31T00:47:45.445Z,17.15
2018-08-31T00:48:25.853Z,17.12
2018-08-31T00:49:06.287Z,17.12
2018-08-31T00:49:46.643Z,17.12
2018-08-31T00:50:27.065Z,17.09
2018-08-31T00:51:07.454Z,17.14
2018-08-31T00:52:46.906Z,17.14
2018-08-31T00:53:27.252Z,17.14
2018-08-31T00:54:07.712Z,17.17
2018-08-31T00:54:48.076Z,17.12
2018-08-31T00:55:28.501Z,17.14
2018-08-31T00:56:08.890Z,17.22
2018-08-31T00:56:49.297Z,17.2
2018-08-31T00:57:29.697Z,17.27
2018-08-31T00:58:10.112Z,17.28
2018-08-31T00:58:50.557Z,17.28
2018-08-31T00:59:30.911Z,17.27
2018-08-31T01:00:11.325Z,17.21
2018-08-31T01:00:51.766Z,17.28
2018-08-31T01:01:32.220Z,17.28
2018-08-31T01:02:12.555Z,17.28
2018-08-31T01:02:52.917Z,17.27
2018-08-31T01:03:33.382Z,17.22
2018-08-31T01:04:13.777Z,17.14
2018-08-31T01:04:54.173Z,17.18
2018-08-31T01:05:34.515Z,17.15
2018-08-31T01:06:14.960Z,17.14
2018-08-31T01:06:55.486Z,17.12
2018-08-31T01:07:35.841Z,17.09
2018-08-31T01:08:16.217Z,17.17
2018-08-31T01:08:56.645Z,17.12
2018-08-31T01:09:37.085Z,17.14
2018-08-31T01:10:17.498Z,17.09
2018-08-31T01:10:57.862Z,17.14
2018-08-31T01:12:55.452Z,17.1
2018-08-31T01:13:35.757Z,17.12
2018-08-31T01:14:16.154Z,17.15
2018-08-31T01:14:56.616Z,17.1
2018-08-31T01:15:36.968Z,17.09
2018-08-31T01:16:17.390Z,17.09
2018-08-31T01:16:57.774Z,17.2
2018-08-31T01:17:38.173Z,17.2
2018-08-31T01:18:18.573Z,17.18
2018-08-31T01:18:59.043Z,17.17
2018-08-31T01:19:39.355Z,17.2
2018-08-31T01:20:19.754Z,17.18
2018-08-31T01:21:00.147Z,17.2
2018-08-31T01:21:40.565Z,17.32
2018-08-31T01:22:20.943Z,17.3
2018-08-31T01:23:01.386Z,17.22
2018-08-31T01:23:41.788Z,17.22
2018-08-31T01:24:22.248Z,17.2
2018-08-31T01:25:02.632Z,17.2
2018-08-31T01:25:42.985Z,17.18
2018-08-31T01:26:23.392Z,17.2
2018-08-31T01:27:03.809Z,17.1
2018-08-31T01:27:44.167Z,17.14
2018-08-31T01:28:24.620Z,17.14
2018-08-31T01:29:04.983Z,17.15
2018-08-31T01:29:45.419Z,17.24
2018-08-31T01:30:25.784Z,17.24
2018-08-31T01:31:06.204Z,17.22
2018-08-31T01:31:46.629Z,17.36
2018-08-31T01:32:27.030Z,17.22
2018-08-31T01:34:06.234Z,17.3
2018-08-31T01:34:46.626Z,17.32
2018-08-31T01:35:27.016Z,17.27
2018-08-31T01:36:07.474Z,17.36
2018-08-31T01:36:47.823Z,17.3
2018-08-31T01:37:28.244Z,17.27
2018-08-31T01:38:08.630Z,17.22
2018-08-31T01:38:49.068Z,17.33
2018-08-31T01:39:29.424Z,17.21
2018-08-31T01:40:09.806Z,17.24
2018-08-31T01:40:50.246Z,17.21
2018-08-31T01:41:30.648Z,17.25
2018-08-31T01:42:11.069Z,17.27
2018-08-31T01:42:51.459Z,17.21
2018-08-31T01:43:31.867Z,17.25
2018-08-31T01:44:12.256Z,17.24
2018-08-31T01:44:52.634Z,17.32
2018-08-31T01:45:33.078Z,17.28
2018-08-31T01:46:13.467Z,17.32
2018-08-31T01:46:53.877Z,17.28
2018-08-31T01:47:34.285Z,17.28
2018-08-31T01:48:14.666Z,17.18
2018-08-31T01:48:55.064Z,17.3
2018-08-31T01:49:35.493Z,17.25
2018-08-31T01:50:15.858Z,17.28
2018-08-31T01:50:56.368Z,17.27
2018-08-31T01:51:36.694Z,17.3
2018-08-31T01:52:17.061Z,17.25
2018-08-31T01:52:57.432Z,17.32
2018-08-31T01:53:37.858Z,17.32
2018-08-31T01:54:18.241Z,17.38
2018-08-31T01:54:58.628Z,17.33
2018-08-31T01:55:39.115Z,17.27
2018-08-31T01:56:19.536Z,17.22
2018-08-31T01:56:59.890Z,17.27
2018-08-31T01:57:40.293Z,17.15
2018-08-31T01:58:20.676Z,17.14
2018-08-31T01:59:01.146Z,17.14
2018-08-31T01:59:41.456Z,17.09
2018-08-31T02:00:21.867Z,17.12
2018-08-31T02:01:02.291Z,17.1
2018-08-31T02:01:42.679Z,17.2
2018-08-31T02:02:23.110Z,17.18
2018-08-31T02:03:03.473Z,17.09
2018-08-31T02:03:43.930Z,17.05
2018-08-31T02:04:24.272Z,17.15
2018-08-31T02:05:04.693Z,17.07
2018-08-31T02:05:45.092Z,17.17
2018-08-31T02:06:25.495Z,17.12
2018-08-31T02:07:05.853Z,17.12
2018-08-31T02:07:46.236Z,17.18
2018-08-31T02:08:26.657Z,17.18
2018-08-31T02:09:07.014Z,17.22
2018-08-31T02:09:47.403Z,17.3
2018-08-31T02:10:27.789Z,17.27
2018-08-31T02:11:08.188Z,17.28
2018-08-31T02:11:48.625Z,17.18
2018-08-31T02:12:29.049Z,17.27
2018-08-31T02:13:09.414Z,17.28
2018-08-31T02:13:49.813Z,17.28
2018-08-31T02:14:30.195Z,17.28
2018-08-31T02:15:10.609Z,17.25
2018-08-31T02:15:50.999Z,17.27
2018-08-31T02:16:31.384Z,17.33
2018-08-31T02:17:11.769Z,17.3
2018-08-31T02:17:52.198Z,17.35
2018-08-31T02:18:32.571Z,17.38
2018-08-31T02:19:13.047Z,17.36
2018-08-31T02:19:53.449Z,17.38
2018-08-31T02:20:33.851Z,17.38
2018-08-31T02:21:14.273Z,17.38
2018-08-31T02:21:54.731Z,17.4
2018-08-31T02:22:35.080Z,17.39
2018-08-31T02:23:15.531Z,17.38
2018-08-31T02:23:55.929Z,17.38
2018-08-31T02:24:36.416Z,17.42
2018-08-31T02:25:16.702Z,17.38
2018-08-31T02:25:57.126Z,17.3
2018-08-31T02:26:37.545Z,17.32
2018-08-31T02:27:17.917Z,17.38
2018-08-31T02:27:58.348Z,17.39
2018-08-31T02:28:38.760Z,17.35
2018-08-31T02:29:19.150Z,17.38
2018-08-31T02:29:59.538Z,17.32
2018-08-31T02:30:39.991Z,17.36
2018-08-31T02:31:20.386Z,17.27
2018-08-31T02:32:00.755Z,17.36
2018-08-31T02:32:41.131Z,17.32
2018-08-31T02:33:21.567Z,17.27
2018-08-31T02:34:01.915Z,17.27
2018-08-31T02:34:42.323Z,17.35
2018-08-31T02:35:22.733Z,17.28
2018-08-31T02:36:03.112Z,17.22
2018-08-31T02:36:43.535Z,17.27
2018-08-31T02:37:23.963Z,17.28
2018-08-31T02:38:04.355Z,17.22
2018-08-31T02:38:44.698Z,17.27
2018-08-31T02:39:25.286Z,17.3
2018-08-31T02:40:05.543Z,17.28
2018-08-31T02:40:45.919Z,17.17
2018-08-31T02:41:26.355Z,17.15
2018-08-31T02:42:06.732Z,17.15
2018-08-31T02:42:47.091Z,17.21
2018-08-31T02:43:27.529Z,17.28
2018-08-31T02:44:07.928Z,17.21
2018-08-31T02:44:48.302Z,17.27
2018-08-31T02:45:28.736Z,17.33
2018-08-31T02:46:09.113Z,17.35
2018-08-31T02:46:49.528Z,17.42
2018-08-31T02:47:29.917Z,17.46
2018-08-31T02:48:10.316Z,17.39
2018-08-31T02:48:50.711Z,17.43
2018-08-31T02:49:31.134Z,17.39
2018-08-31T02:50:11.548Z,17.39
2018-08-31T02:50:51.949Z,17.4
2018-08-31T02:51:32.346Z,17.42
2018-08-31T02:52:12.750Z,17.4
2018-08-31T02:52:53.138Z,17.4
2018-08-31T02:53:33.497Z,17.4
2018-08-31T02:54:13.902Z,17.32
2018-08-31T02:54:54.304Z,17.28
2018-08-31T02:55:34.707Z,17.38
2018-08-31T02:56:15.094Z,17.33
2018-08-31T02:56:55.515Z,17.3
2018-08-31T02:59:10.116Z,17.24
2018-08-31T02:59:50.365Z,17.27
2018-08-31T03:00:30.868Z,17.35
2018-08-31T03:01:11.165Z,17.36
2018-08-31T03:01:51.611Z,17.43
2018-08-31T03:02:31.945Z,17.36
2018-08-31T03:03:12.389Z,17.33
2018-08-31T03:03:52.768Z,17.35
2018-08-31T03:04:33.185Z,17.4
2018-08-31T03:05:13.579Z,17.38
2018-08-31T03:05:53.985Z,17.33
2018-08-31T03:06:34.399Z,17.38
2018-08-31T03:07:14.805Z,17.38
2018-08-31T03:07:55.236Z,17.38
2018-08-31T03:08:35.601Z,17.4
2018-08-31T03:09:16.049Z,17.35
2018-08-31T03:09:56.385Z,17.39
2018-08-31T03:10:36.775Z,17.39
2018-08-31T03:11:17.171Z,17.4
2018-08-31T03:11:57.577Z,17.35
2018-08-31T03:12:37.971Z,17.32
2018-08-31T03:13:18.378Z,17.38
2018-08-31T03:13:58.810Z,17.35
2018-08-31T03:14:39.201Z,17.32
2018-08-31T03:15:19.598Z,17.32
2018-08-31T03:16:00.032Z,17.38
2018-08-31T03:16:40.418Z,17.36
2018-08-31T03:17:20.846Z,17.32
2018-08-31T03:18:01.277Z,17.43
2018-08-31T03:18:41.641Z,17.33
2018-08-31T03:19:22.056Z,17.38
2018-08-31T03:20:02.438Z,17.33
2018-08-31T03:20:42.883Z,17.36
2018-08-31T03:21:23.379Z,17.27
2018-08-31T03:22:03.693Z,17.38
2018-08-31T03:22:44.141Z,17.33
2018-08-31T03:23:24.568Z,17.22
2018-08-31T03:24:04.919Z,17.32
2018-08-31T03:24:45.302Z,17.22
2018-08-31T03:25:25.767Z,17.25
2018-08-31T03:26:06.194Z,17.27
2018-08-31T03:26:46.571Z,17.27
2018-08-31T03:27:26.960Z,17.27
2018-08-31T03:28:07.443Z,17.15
2018-08-31T03:28:47.799Z,17.1
2018-08-31T03:29:28.256Z,17.17
2018-08-31T03:30:08.659Z,17.15
2018-08-31T03:30:49.023Z,17.17
2018-08-31T03:31:29.454Z,17.17
2018-08-31T03:32:09.894Z,17.09
2018-08-31T03:32:50.324Z,17.09
2018-08-31T03:33:30.699Z,17.09
2018-08-31T03:34:11.136Z,17.09
2018-08-31T03:34:51.611Z,16.99
2018-08-31T03:35:31.929Z,16.95
2018-08-31T03:37:09.451Z,16.96
2018-08-31T03:37:49.515Z,16.85
2018-08-31T03:38:29.911Z,16.82
2018-08-31T03:39:10.338Z,16.88
2018-08-31T03:39:50.769Z,16.75
2018-08-31T03:40:31.164Z,16.75
2018-08-31T03:41:11.577Z,16.67
2018-08-31T03:41:51.970Z,16.66
2018-08-31T03:42:32.400Z,16.6
2018-08-31T03:43:12.796Z,16.63
2018-08-31T03:43:53.147Z,16.65
2018-08-31T03:44:33.558Z,16.7
2018-08-31T03:45:13.935Z,16.7
2018-08-31T03:45:54.372Z,16.57
2018-08-31T03:46:34.823Z,16.66
2018-08-31T03:48:23.864Z,16.73
2018-08-31T03:49:02.675Z,16.72
2018-08-31T03:49:43.079Z,16.67
2018-08-31T03:50:23.483Z,16.72
2018-08-31T03:51:03.812Z,16.72
2018-08-31T03:51:44.235Z,16.75
2018-08-31T03:52:24.659Z,16.77
2018-08-31T03:53:05.061Z,16.81
2018-08-31T03:53:45.438Z,16.84
2018-08-31T03:54:25.865Z,16.8
2018-08-31T03:55:06.222Z,16.77
2018-08-31T03:55:46.618Z,16.85
2018-08-31T03:56:27.023Z,16.84
2018-08-31T03:57:07.410Z,16.8
2018-08-31T03:57:47.850Z,16.85
2018-08-31T03:58:29.020Z,16.82
2018-08-31T03:59:09.419Z,16.88
2018-08-31T03:59:49.795Z,16.78
2018-08-31T04:00:30.272Z,16.87
2018-08-31T04:01:10.638Z,16.92
2018-08-31T04:01:51.070Z,16.82
2018-08-31T04:02:31.510Z,16.84
2018-08-31T04:03:11.878Z,16.84
2018-08-31T04:03:52.270Z,16.88
2018-08-31T04:04:32.672Z,16.85
2018-08-31T04:05:13.055Z,16.88
2018-08-31T04:05:53.459Z,16.9
2018-08-31T04:06:33.871Z,16.91
2018-08-31T04:07:14.268Z,16.9
2018-08-31T04:07:54.666Z,16.85
2018-08-31T04:08:35.036Z,16.88
2018-08-31T04:09:15.416Z,16.8
2018-08-31T04:09:55.816Z,16.81
2018-08-31T04:10:36.201Z,16.82
2018-08-31T04:11:16.592Z,16.87
2018-08-31T04:11:56.995Z,16.92
2018-08-31T04:12:37.371Z,16.98
2018-08-31T04:13:17.859Z,17
2018-08-31T04:13:58.180Z,17.02
2018-08-31T04:14:38.613Z,16.99
2018-08-31T04:15:18.978Z,16.99
2018-08-31T04:15:59.429Z,16.96
2018-08-31T04:16:40.708Z,16.99
2018-08-31T04:17:21.260Z,17.07
2018-08-31T04:18:01.808Z,16.96
2018-08-31T04:18:42.413Z,17.06
2018-08-31T04:19:22.783Z,16.99
2018-08-31T04:20:03.127Z,17.17
2018-08-31T04:20:43.585Z,17.06
2018-08-31T04:21:23.974Z,17.12
2018-08-31T04:22:04.395Z,17.14
2018-08-31T04:22:44.778Z,17.1
2018-08-31T04:23:25.136Z,17.15
2018-08-31T04:24:05.573Z,17.12
2018-08-31T04:24:45.983Z,17.09
2018-08-31T04:25:26.327Z,17
2018-08-31T04:26:06.739Z,17.07
2018-08-31T04:26:47.135Z,16.95
2018-08-31T05:06:22.205Z,15.38
2018-08-31T05:07:02.465Z,15.52
2018-08-31T05:07:42.847Z,15.53
2018-08-31T05:08:23.424Z,15.51
2018-08-31T05:09:03.811Z,15.49
2018-08-31T05:09:44.249Z,15.38
2018-08-31T05:10:24.634Z,15.44
2018-08-31T05:11:05.165Z,15.46
2018-08-31T05:11:45.590Z,15.35
2018-08-31T05:12:26.115Z,15.41
2018-08-31T05:13:06.650Z,15.43
2018-08-31T05:13:47.112Z,15.52
2018-08-31T05:14:27.719Z,15.58
2018-08-31T05:15:08.182Z,15.48
2018-08-31T05:15:48.719Z,15.58
2018-08-31T05:16:29.190Z,15.56
2018-08-31T05:17:09.570Z,15.7
2018-08-31T05:17:49.976Z,15.74
2018-08-31T05:18:30.365Z,15.8
2018-08-31T05:19:10.783Z,15.8
2018-08-31T05:19:51.158Z,15.85
2018-08-31T05:20:31.569Z,15.93
2018-08-31T05:21:11.996Z,15.92
2018-08-31T05:21:52.352Z,15.91
2018-08-31T05:22:32.890Z,16.1
2018-08-31T05:23:13.177Z,16.17
2018-08-31T05:23:53.685Z,16.08
2018-08-31T05:24:34.069Z,16.22
2018-08-31T05:25:14.559Z,16.16
2018-08-31T05:25:54.871Z,16.26
2018-08-31T05:26:35.292Z,16.18
2018-08-31T05:27:15.692Z,16.13
2018-08-31T05:27:56.116Z,16.29
2018-08-31T05:28:36.468Z,16.29
2018-08-31T05:29:16.904Z,16.34
2018-08-31T05:29:57.321Z,16.45
2018-08-31T05:30:37.701Z,16.44
2018-08-31T05:31:18.125Z,16.5
2018-08-31T05:31:58.500Z,16.47
2018-08-31T05:32:38.883Z,16.54
2018-08-31T05:33:19.297Z,16.57
2018-08-31T05:33:59.711Z,16.57
2018-08-31T05:34:40.141Z,16.66
2018-08-31T05:35:20.488Z,16.69
2018-08-31T05:36:00.865Z,16.77
2018-08-31T05:36:41.255Z,16.84
2018-08-31T05:37:21.632Z,16.8
2018-08-31T05:38:02.087Z,16.78
2018-08-31T05:38:42.472Z,16.85
2018-08-31T05:39:22.858Z,16.96
2018-08-31T05:40:03.251Z,16.96
2018-08-31T05:40:43.701Z,16.88
2018-08-31T05:41:24.168Z,16.88
2018-08-31T05:42:05.623Z,16.98
2018-08-31T05:42:46.028Z,16.95
2018-08-31T05:43:26.415Z,16.92
2018-08-31T05:44:06.846Z,17.05
2018-08-31T05:44:47.255Z,17.03
2018-08-31T05:45:27.674Z,17.12
2018-08-31T05:46:08.034Z,17.06
2018-08-31T05:46:48.490Z,17.1
2018-08-31T05:47:28.926Z,17.18
2018-08-31T05:48:09.353Z,17.15
2018-08-31T05:48:49.823Z,17.09
2018-08-31T05:49:30.258Z,17.14
2018-08-31T05:50:10.674Z,17.22
2018-08-31T05:50:51.070Z,17.2
2018-08-31T05:51:31.491Z,17.27
2018-08-31T05:52:11.961Z,17.36
2018-08-31T05:52:52.405Z,17.32
2018-08-31T05:54:40.151Z,17.46
2018-08-31T05:56:35.505Z,17.57
2018-08-31T05:57:29.424Z,17.6
2018-08-31T05:58:21.474Z,17.65
2018-08-31T05:59:14.428Z,17.54
2018-08-31T06:00:09.851Z,17.6
2018-08-31T06:01:02.756Z,17.57
2018-08-31T06:01:49.535Z,17.54
2018-08-31T06:02:29.854Z,17.51
2018-08-31T06:03:10.385Z,17.62
2018-08-31T06:03:50.878Z,17.63
2018-08-31T06:04:31.311Z,17.68
2018-08-31T06:05:11.887Z,17.65
2018-08-31T06:05:52.481Z,17.63
2018-08-31T06:06:32.785Z,17.71
2018-08-31T06:07:14.733Z,17.73
2018-08-31T06:07:54.769Z,17.71
2018-08-31T06:08:35.445Z,17.63
2018-08-31T06:09:16.370Z,17.7
2018-08-31T06:09:57.316Z,17.76
2018-08-31T06:10:37.992Z,17.79
2018-08-31T06:11:18.615Z,17.8
2018-08-31T06:11:59.393Z,17.77
2018-08-31T06:12:40.213Z,17.68
2018-08-31T06:13:21.095Z,17.74
2018-08-31T06:14:01.379Z,17.6
2018-08-31T06:14:41.863Z,17.62
2018-08-31T06:15:22.713Z,17.54
2018-08-31T06:16:03.083Z,17.58
2018-08-31T06:16:43.444Z,17.53
2018-08-31T06:17:23.838Z,17.55
2018-08-31T06:18:04.312Z,17.58
2018-08-31T06:18:44.742Z,17.55
2018-08-31T06:19:25.191Z,17.68
2018-08-31T06:20:05.705Z,17.65
2018-08-31T06:20:46.138Z,17.63
2018-08-31T06:21:26.486Z,17.76
2018-08-31T06:22:06.947Z,17.73
2018-08-31T06:22:47.460Z,17.71
2018-08-31T06:23:27.841Z,17.74
2018-08-31T06:24:08.350Z,17.84
2018-08-31T06:24:48.946Z,17.87
2018-08-31T06:25:31.470Z,17.91
2018-08-31T06:26:12.115Z,17.81
2018-08-31T06:26:54.897Z,17.87
2018-08-31T06:27:35.477Z,17.96
2018-08-31T06:28:16.013Z,17.89
2018-08-31T06:28:56.474Z,17.95
2018-08-31T06:29:36.887Z,18.01
2018-08-31T06:30:17.346Z,18.04
2018-08-31T06:30:58.259Z,18.01
2018-08-31T06:31:41.030Z,17.95
2018-08-31T06:32:21.736Z,18.09
2018-08-31T06:33:02.556Z,18.07
2018-08-31T06:33:43.382Z,18.09
2018-08-31T06:34:28.793Z,18.1
2018-08-31T06:35:11.714Z,18.11
2018-08-31T06:35:58.791Z,18.1
2018-08-31T06:36:39.295Z,18.1
2018-08-31T06:37:20.820Z,18.17
2018-08-31T06:38:00.789Z,18.11
2018-08-31T06:38:41.786Z,18.23
2018-08-31T06:39:23.209Z,18.16
2018-08-31T06:40:03.432Z,18.19
2018-08-31T06:40:46.097Z,18.23
2018-08-31T06:41:26.189Z,18.2
2018-08-31T06:42:06.570Z,18.21
2018-08-31T06:42:46.930Z,18.31
2018-08-31T06:43:27.869Z,18.28
2018-08-31T06:44:08.263Z,18.26
2018-08-31T06:44:48.672Z,18.26
2018-08-31T06:45:29.166Z,18.21
2018-08-31T06:46:09.635Z,18.31
2018-08-31T06:46:50.521Z,18.28
2018-08-31T06:47:32.752Z,18.25
2018-08-31T06:48:15.541Z,18.32
2018-08-31T06:49:02.015Z,18.23
2018-08-31T06:49:45.376Z,18.19
2018-08-31T06:50:26.304Z,18.21
2018-08-31T06:51:08.734Z,18.21
2018-08-31T06:51:49.683Z,18.32
2018-08-31T06:52:29.622Z,18.32
2018-08-31T06:53:10.353Z,18.26
2018-08-31T06:53:50.683Z,18.28
2018-08-31T06:54:31.168Z,18.28
2018-08-31T06:55:11.550Z,18.25
2018-08-31T06:55:52.007Z,18.25
2018-08-31T06:56:32.454Z,18.34
2018-08-31T06:57:13.011Z,18.21
2018-08-31T06:57:54.472Z,18.32
2018-08-31T06:58:35.075Z,18.21
2018-08-31T06:59:17.542Z,18.31
2018-08-31T06:59:59.848Z,18.19
2018-08-31T07:02:19.351Z,18.25
2018-08-31T07:02:57.509Z,18.21
2018-08-31T07:03:41.896Z,18.2
2018-08-31T07:06:00.378Z,18.19
2018-08-31T07:08:38.328Z,18.32
2018-08-31T07:09:41.980Z,18.28
2018-08-31T07:10:38.902Z,18.17
2018-08-31T07:11:22.983Z,18.17
2018-08-31T07:12:07.040Z,18.16
2018-08-31T07:12:59.577Z,18.19
2018-08-31T07:13:40.051Z,18.13
2018-08-31T07:14:20.699Z,18.14
2018-08-31T07:15:01.534Z,18.16
2018-08-31T07:15:42.053Z,18.17
2018-08-31T07:16:22.397Z,18.17
2018-08-31T07:17:02.973Z,18.19
2018-08-31T07:17:43.512Z,18.14
2018-08-31T07:18:23.798Z,18.14
2018-08-31T07:19:04.254Z,18.21
2018-08-31T07:19:44.668Z,18.29
2018-08-31T07:20:25.080Z,18.2
2018-08-31T07:21:05.535Z,18.31
2018-08-31T07:21:45.968Z,18.25
2018-08-31T07:22:26.383Z,18.25
2018-08-31T07:23:06.865Z,18.26
2018-08-31T07:23:47.264Z,18.29
2018-08-31T07:24:27.733Z,18.26
2018-08-31T07:25:08.281Z,18.41
2018-08-31T07:25:48.765Z,18.31
2018-08-31T07:26:29.460Z,18.31
2018-08-31T07:27:09.765Z,18.38
2018-08-31T07:27:50.421Z,18.35
2018-08-31T07:31:52.576Z,18.49
2018-08-31T07:32:32.964Z,18.62
2018-08-31T07:33:13.396Z,18.62
2018-08-31T07:33:53.826Z,18.66
2018-08-31T07:34:34.292Z,18.72
2018-08-31T07:35:14.752Z,18.79
2018-08-31T07:35:55.168Z,18.71
2018-08-31T07:36:35.759Z,18.79
2018-08-31T07:37:16.815Z,18.83
2018-08-31T07:37:57.526Z,18.89
2018-08-31T07:38:38.203Z,18.82
2018-08-31T07:39:18.545Z,18.83
2018-08-31T07:39:58.960Z,18.84
2018-08-31T07:40:39.408Z,18.79
2018-08-31T07:41:19.899Z,18.82
2018-08-31T07:42:00.959Z,18.87
2018-08-31T07:42:41.430Z,18.84
2018-08-31T07:43:22.225Z,18.83
2018-08-31T07:44:02.771Z,18.79
2018-08-31T07:44:43.294Z,18.79
2018-08-31T07:45:23.704Z,18.84
2018-08-31T07:46:04.211Z,18.9
2018-08-31T07:46:44.626Z,18.9
2018-08-31T07:47:25.066Z,18.93
2018-08-31T07:48:05.502Z,18.97
2018-08-31T07:48:45.867Z,19.05
2018-08-31T07:49:26.358Z,19.02
2018-08-31T07:50:06.835Z,19.1
2018-08-31T07:50:47.381Z,19.09
2018-08-31T07:51:27.813Z,19.12
2018-08-31T07:52:08.274Z,19.17
2018-08-31T07:52:49.180Z,19.2
2018-08-31T07:53:29.613Z,19.27
2018-08-31T07:54:10.073Z,19.38
2018-08-31T07:54:50.525Z,19.28
2018-08-31T07:55:30.982Z,19.35
2018-08-31T07:56:11.585Z,19.43
2018-08-31T07:56:52.000Z,19.47
2018-08-31T07:57:32.836Z,19.5
2018-08-31T07:58:12.954Z,19.53
2018-08-31T07:58:53.454Z,19.5
2018-08-31T07:59:34.109Z,19.6
2018-08-31T08:00:14.417Z,19.64
2018-08-31T08:00:54.786Z,19.57
2018-08-31T08:01:35.442Z,19.71
2018-08-31T08:02:16.632Z,19.75
2018-08-31T08:02:57.721Z,19.78
2018-08-31T08:03:38.013Z,19.75
2018-08-31T08:04:18.645Z,19.89
2018-08-31T08:04:59.085Z,19.95
2018-08-31T08:05:39.522Z,19.95
2018-08-31T08:06:19.886Z,19.94
2018-08-31T08:07:00.307Z,19.87
2018-08-31T08:07:40.749Z,20.01
2018-08-31T08:08:21.462Z,19.97
2018-08-31T08:09:02.031Z,20.07
2018-08-31T08:09:42.537Z,20.05
2018-08-31T08:10:23.060Z,20.05
2018-08-31T08:11:03.324Z,20.04
2018-08-31T08:11:43.784Z,20.12
2018-08-31T08:12:24.180Z,20.15
2018-08-31T08:13:04.651Z,20.13
2018-08-31T08:13:45.113Z,20.15
2018-08-31T08:14:25.484Z,20.19
2018-08-31T08:15:05.999Z,20.1
2018-08-31T08:15:46.613Z,20.17
2018-08-31T08:16:27.075Z,20.33
2018-08-31T08:17:08.715Z,20.38
2018-08-31T08:17:49.248Z,20.4
2018-08-31T08:20:12.062Z,20.41
2018-08-31T08:21:59.165Z,20.66
2018-08-31T08:24:43.601Z,20.76
2018-08-31T08:25:34.040Z,20.73
2018-08-31T08:26:14.652Z,20.78
2018-08-31T08:26:55.308Z,20.87
2018-08-31T08:27:35.972Z,20.87
2018-08-31T08:29:32.640Z,21
2018-08-31T08:30:12.770Z,21.09
2018-08-31T08:32:30.307Z,21.15
2018-08-31T08:35:48.572Z,21.31
2018-08-31T08:36:49.426Z,21.3
2018-08-31T08:37:45.912Z,21.33
2018-08-31T08:39:52.976Z,21.46
2018-08-31T08:40:45.391Z,21.46
2018-08-31T08:42:45.353Z,21.63
2018-08-31T08:43:27.115Z,21.61
2018-08-31T08:44:07.850Z,21.63
2018-08-31T08:44:48.045Z,21.71
2018-08-31T08:45:28.599Z,21.74
2018-08-31T08:46:09.197Z,21.93
2018-08-31T08:46:49.738Z,21.86
2018-08-31T08:47:32.834Z,22.02
2018-08-31T08:48:13.359Z,22.02
2018-08-31T08:48:53.545Z,22.08
2018-08-31T08:49:34.907Z,22.02
2018-08-31T08:50:16.036Z,21.99
2018-08-31T08:50:58.046Z,22.02
2018-08-31T08:51:38.529Z,22.14
2018-08-31T08:52:18.888Z,22.08
2018-08-31T08:52:59.376Z,22.24
2018-08-31T08:53:39.829Z,22.21
2018-08-31T08:54:21.924Z,22.35
2018-08-31T08:55:03.453Z,22.44
2018-08-31T08:55:46.033Z,22.48
2018-08-31T08:56:31.501Z,22.57
2018-08-31T08:57:12.075Z,22.63
2018-08-31T08:57:52.454Z,22.67
2018-08-31T08:58:32.861Z,22.74
2018-08-31T08:59:13.455Z,22.84
2018-08-31T08:59:53.875Z,22.93
2018-08-31T09:00:34.258Z,22.91
2018-08-31T09:01:14.641Z,22.99
2018-08-31T09:01:55.925Z,22.97
2018-08-31T09:02:37.461Z,23.04
2018-08-31T09:03:18.682Z,23.04
2018-08-31T09:03:58.514Z,23.06
2018-08-31T09:04:39.166Z,23.09
2018-08-31T09:05:19.753Z,23.06
2018-08-31T09:06:00.570Z,23.14
2018-08-31T09:06:41.469Z,23.19
2018-08-31T09:07:24.600Z,23.29
2018-08-31T09:08:05.923Z,23.32
2018-08-31T09:08:49.936Z,23.34
2018-08-31T09:09:34.606Z,23.32
2018-08-31T09:10:15.246Z,23.31
2018-08-31T09:10:58.575Z,23.37
2018-08-31T09:11:40.709Z,23.21
2018-08-31T09:12:21.393Z,23.26
2018-08-31T09:13:03.465Z,23.35
2018-08-31T09:13:44.301Z,23.42
2018-08-31T09:14:28.651Z,23.41
2018-08-31T09:15:15.164Z,23.49
2018-08-31T09:17:06.619Z,23.47
2018-08-31T09:17:49.351Z,23.39
2018-08-31T09:20:11.179Z,23.29
2018-08-31T09:20:51.454Z,23.35
2018-08-31T09:21:32.132Z,23.42
2018-08-31T09:22:13.809Z,23.44
2018-08-31T09:22:57.518Z,23.52
2018-08-31T09:23:48.406Z,23.56
2018-08-31T09:24:29.828Z,23.64
2018-08-31T09:25:21.289Z,23.67
2018-08-31T09:26:22.944Z,23.77
2018-08-31T09:27:06.964Z,23.87
2018-08-31T09:29:26.282Z,24.12
2018-08-31T09:30:08.945Z,24.18
2018-08-31T09:30:58.563Z,24.19
2018-08-31T09:31:40.429Z,24.23
2018-08-31T09:32:23.192Z,24.3
2018-08-31T09:33:07.434Z,24.24
2018-08-31T09:33:50.734Z,24.39
2018-08-31T09:34:34.684Z,24.39
2018-08-31T09:35:15.897Z,24.33
2018-08-31T09:35:58.286Z,24.41
2018-08-31T09:36:40.345Z,24.41
2018-08-31T09:37:22.268Z,24.42
2018-08-31T09:40:00.014Z,24.41
2018-08-31T09:44:54.214Z,24.59
2018-08-31T09:48:22.414Z,24.82
2018-08-31T09:51:37.035Z,24.79
2018-08-31T09:52:17.525Z,24.82
2018-08-31T09:52:57.895Z,24.87
2018-08-31T09:53:39.493Z,24.86
2018-08-31T09:54:19.130Z,24.86
2018-08-31T09:54:59.635Z,24.94
2018-08-31T09:55:40.546Z,24.92
2018-08-31T09:56:22.035Z,24.92
2018-08-31T09:57:01.911Z,24.97
2018-08-31T09:57:43.377Z,25.07
2018-08-31T09:58:24.026Z,25.24
2018-08-31T09:59:04.634Z,25.27
2018-08-31T09:59:45.846Z,25.36
2018-08-31T10:00:26.893Z,25.35
2018-08-31T10:01:07.635Z,25.35
2018-08-31T10:01:49.245Z,25.29
2018-08-31T10:02:30.264Z,25.29
2018-08-31T10:03:10.718Z,25.22
2018-08-31T10:07:46.921Z,25.34
2018-08-31T10:08:27.915Z,25.24
2018-08-31T10:09:09.588Z,25.26
2018-08-31T10:09:51.621Z,25.38
2018-08-31T10:10:32.407Z,25.39
2018-08-31T10:11:12.910Z,25.35
2018-08-31T10:11:54.423Z,25.49
2018-08-31T10:12:34.159Z,25.45
2018-08-31T10:13:17.128Z,25.63
2018-08-31T10:13:57.499Z,25.72
2018-08-31T10:14:38.319Z,25.67
2018-08-31T10:15:18.769Z,25.82
2018-08-31T10:15:59.973Z,25.82
2018-08-31T10:16:41.129Z,25.79
2018-08-31T10:17:22.935Z,25.69
2018-08-31T10:18:05.570Z,25.78
2018-08-31T10:18:46.419Z,25.72
2018-08-31T10:19:27.035Z,25.74